sensor_id;sensor_type;location;lat;lon;timestamp;P1;durP1;ratioP1;P2;durP2;ratioP2
49422;SDS011;36998;51.974;20.150;2022-11-20T00:01:59;67.07;;;26.90;;
49422;SDS011;36998;51.974;20.150;2022-11-20T00:04:24;61.60;;;24.98;;
49422;SDS011;36998;51.974;20.150;2022-11-20T00:06:50;61.85;;;25.45;;
49422;SDS011;36998;51.974;20.150;2022-11-20T00:09:15;70.25;;;26.85;;
49422;SDS011;36998;51.974;20.150;2022-11-20T00:11:41;70.70;;;27.48;;
49422;SDS011;36998;51.974;20.150;2022-11-20T00:14:06;69.70;;;26.80;;
49422;SDS011;36998;51.974;20.150;2022-11-20T00:16:34;72.65;;;27.45;;
49422;SDS011;36998;51.974;20.150;2022-11-20T00:19:00;72.50;;;26.17;;
49422;SDS011;36998;51.974;20.150;2022-11-20T00:21:26;70.85;;;26.90;;
49422;SDS011;36998;51.974;20.150;2022-11-20T00:23:53;63.60;;;26.20;;
49422;SDS011;36998;51.974;20.150;2022-11-20T00:26:21;68.90;;;26.77;;
49422;SDS011;36998;51.974;20.150;2022-11-20T00:28:51;64.88;;;26.77;;
49422;SDS011;36998;51.974;20.150;2022-11-20T00:31:21;66.13;;;26.67;;
49422;SDS011;36998;51.974;20.150;2022-11-20T00:33:47;68.10;;;27.15;;
49422;SDS011;36998;51.974;20.150;2022-11-20T00:36:14;71.93;;;26.15;;
49422;SDS011;36998;51.974;20.150;2022-11-20T00:38:41;70.38;;;27.33;;
49422;SDS011;36998;51.974;20.150;2022-11-20T00:41:09;57.22;;;23.92;;
49422;SDS011;36998;51.974;20.150;2022-11-20T00:43:36;71.15;;;25.48;;
49422;SDS011;36998;51.974;20.150;2022-11-20T00:46:09;68.47;;;26.13;;
49422;SDS011;36998;51.974;20.150;2022-11-20T00:48:37;66.00;;;25.50;;
49422;SDS011;36998;51.974;20.150;2022-11-20T00:51:03;66.00;;;25.80;;
49422;SDS011;36998;51.974;20.150;2022-11-20T00:53:28;65.20;;;24.40;;
49422;SDS011;36998;51.974;20.150;2022-11-20T00:58:31;60.00;;;24.65;;
49422;SDS011;36998;51.974;20.150;2022-11-20T01:01:11;58.67;;;23.08;;
49422;SDS011;36998;51.974;20.150;2022-11-20T01:03:39;64.03;;;23.92;;
49422;SDS011;36998;51.974;20.150;2022-11-20T01:06:09;66.35;;;23.80;;
49422;SDS011;36998;51.974;20.150;2022-11-20T01:08:37;66.70;;;25.48;;
49422;SDS011;36998;51.974;20.150;2022-11-20T01:11:07;68.68;;;26.95;;
49422;SDS011;36998;51.974;20.150;2022-11-20T01:13:34;65.82;;;24.98;;
49422;SDS011;36998;51.974;20.150;2022-11-20T01:18:38;62.67;;;23.98;;
49422;SDS011;36998;51.974;20.150;2022-11-20T01:21:06;61.70;;;24.40;;
49422;SDS011;36998;51.974;20.150;2022-11-20T01:23:34;64.10;;;25.13;;
49422;SDS011;36998;51.974;20.150;2022-11-20T01:26:01;69.15;;;27.02;;
49422;SDS011;36998;51.974;20.150;2022-11-20T01:28:32;64.20;;;24.52;;
49422;SDS011;36998;51.974;20.150;2022-11-20T01:30:58;70.50;;;25.30;;
49422;SDS011;36998;51.974;20.150;2022-11-20T01:33:24;64.15;;;25.73;;
49422;SDS011;36998;51.974;20.150;2022-11-20T01:35:51;64.47;;;24.98;;
49422;SDS011;36998;51.974;20.150;2022-11-20T01:38:17;65.45;;;24.92;;
49422;SDS011;36998;51.974;20.150;2022-11-20T01:40:43;56.97;;;22.20;;
49422;SDS011;36998;51.974;20.150;2022-11-20T01:43:18;72.88;;;26.38;;
49422;SDS011;36998;51.974;20.150;2022-11-20T01:48:26;68.25;;;27.48;;
49422;SDS011;36998;51.974;20.150;2022-11-20T01:51:06;74.68;;;26.30;;
49422;SDS011;36998;51.974;20.150;2022-11-20T01:53:37;61.55;;;24.02;;
49422;SDS011;36998;51.974;20.150;2022-11-20T01:56:04;65.55;;;24.80;;
49422;SDS011;36998;51.974;20.150;2022-11-20T01:58:34;66.95;;;25.85;;
49422;SDS011;36998;51.974;20.150;2022-11-20T02:01:03;71.57;;;27.08;;
49422;SDS011;36998;51.974;20.150;2022-11-20T02:03:29;68.50;;;25.35;;
49422;SDS011;36998;51.974;20.150;2022-11-20T02:06:07;69.70;;;26.48;;
49422;SDS011;36998;51.974;20.150;2022-11-20T02:08:38;71.18;;;26.77;;
49422;SDS011;36998;51.974;20.150;2022-11-20T02:11:04;67.57;;;26.27;;
49422;SDS011;36998;51.974;20.150;2022-11-20T02:13:29;70.50;;;26.52;;
49422;SDS011;36998;51.974;20.150;2022-11-20T02:16:21;60.83;;;23.80;;
49422;SDS011;36998;51.974;20.150;2022-11-20T02:18:49;64.63;;;24.75;;
49422;SDS011;36998;51.974;20.150;2022-11-20T02:24:18;77.38;;;27.52;;
49422;SDS011;36998;51.974;20.150;2022-11-20T02:26:57;71.03;;;25.80;;
49422;SDS011;36998;51.974;20.150;2022-11-20T02:29:33;69.05;;;25.77;;
49422;SDS011;36998;51.974;20.150;2022-11-20T02:32:04;70.88;;;26.40;;
49422;SDS011;36998;51.974;20.150;2022-11-20T02:34:30;75.95;;;27.10;;
49422;SDS011;36998;51.974;20.150;2022-11-20T02:36:56;73.93;;;26.85;;
49422;SDS011;36998;51.974;20.150;2022-11-20T02:39:23;73.07;;;26.33;;
49422;SDS011;36998;51.974;20.150;2022-11-20T02:41:51;68.95;;;26.83;;
49422;SDS011;36998;51.974;20.150;2022-11-20T02:44:18;72.43;;;27.15;;
49422;SDS011;36998;51.974;20.150;2022-11-20T02:46:44;68.13;;;25.60;;
49422;SDS011;36998;51.974;20.150;2022-11-20T02:49:10;74.40;;;26.83;;
49422;SDS011;36998;51.974;20.150;2022-11-20T02:51:35;73.38;;;26.33;;
49422;SDS011;36998;51.974;20.150;2022-11-20T02:54:00;69.38;;;26.48;;
49422;SDS011;36998;51.974;20.150;2022-11-20T02:56:26;77.93;;;27.10;;
49422;SDS011;36998;51.974;20.150;2022-11-20T02:58:52;77.38;;;27.65;;
49422;SDS011;36998;51.974;20.150;2022-11-20T03:01:17;82.28;;;27.77;;
49422;SDS011;36998;51.974;20.150;2022-11-20T03:03:43;65.75;;;26.38;;
49422;SDS011;36998;51.974;20.150;2022-11-20T03:06:08;71.53;;;26.40;;
49422;SDS011;36998;51.974;20.150;2022-11-20T03:08:34;76.43;;;27.40;;
49422;SDS011;36998;51.974;20.150;2022-11-20T03:11:04;70.50;;;28.38;;
49422;SDS011;36998;51.974;20.150;2022-11-20T03:13:31;76.28;;;28.13;;
49422;SDS011;36998;51.974;20.150;2022-11-20T03:15:57;78.03;;;29.90;;
49422;SDS011;36998;51.974;20.150;2022-11-20T03:18:22;76.68;;;27.55;;
49422;SDS011;36998;51.974;20.150;2022-11-20T03:20:48;79.88;;;28.50;;
49422;SDS011;36998;51.974;20.150;2022-11-20T03:23:13;80.93;;;28.60;;
49422;SDS011;36998;51.974;20.150;2022-11-20T03:25:39;81.75;;;28.75;;
49422;SDS011;36998;51.974;20.150;2022-11-20T03:28:04;71.75;;;27.38;;
49422;SDS011;36998;51.974;20.150;2022-11-20T03:30:30;76.90;;;28.25;;
49422;SDS011;36998;51.974;20.150;2022-11-20T03:32:55;73.15;;;27.42;;
49422;SDS011;36998;51.974;20.150;2022-11-20T03:35:21;79.88;;;28.48;;
49422;SDS011;36998;51.974;20.150;2022-11-20T03:37:46;74.70;;;26.52;;
49422;SDS011;36998;51.974;20.150;2022-11-20T03:40:12;75.95;;;28.63;;
49422;SDS011;36998;51.974;20.150;2022-11-20T03:42:37;73.40;;;28.27;;
49422;SDS011;36998;51.974;20.150;2022-11-20T03:45:13;80.00;;;27.27;;
49422;SDS011;36998;51.974;20.150;2022-11-20T03:47:39;77.15;;;27.33;;
49422;SDS011;36998;51.974;20.150;2022-11-20T03:50:05;77.90;;;28.33;;
49422;SDS011;36998;51.974;20.150;2022-11-20T03:52:31;74.63;;;29.15;;
49422;SDS011;36998;51.974;20.150;2022-11-20T03:54:56;78.07;;;26.55;;
49422;SDS011;36998;51.974;20.150;2022-11-20T03:57:22;72.57;;;28.00;;
49422;SDS011;36998;51.974;20.150;2022-11-20T03:59:47;72.68;;;27.30;;
49422;SDS011;36998;51.974;20.150;2022-11-20T04:02:13;71.78;;;27.70;;
49422;SDS011;36998;51.974;20.150;2022-11-20T04:04:38;77.40;;;27.80;;
49422;SDS011;36998;51.974;20.150;2022-11-20T04:07:03;74.57;;;26.83;;
49422;SDS011;36998;51.974;20.150;2022-11-20T04:09:29;79.60;;;27.58;;
49422;SDS011;36998;51.974;20.150;2022-11-20T04:11:54;78.85;;;28.17;;
49422;SDS011;36998;51.974;20.150;2022-11-20T04:14:20;81.72;;;29.15;;
49422;SDS011;36998;51.974;20.150;2022-11-20T04:16:45;85.78;;;30.98;;
49422;SDS011;36998;51.974;20.150;2022-11-20T04:19:12;82.47;;;29.15;;
49422;SDS011;36998;51.974;20.150;2022-11-20T04:21:40;75.33;;;27.40;;
49422;SDS011;36998;51.974;20.150;2022-11-20T04:24:06;71.10;;;26.08;;
49422;SDS011;36998;51.974;20.150;2022-11-20T04:26:31;78.90;;;28.65;;
49422;SDS011;36998;51.974;20.150;2022-11-20T04:28:57;76.30;;;28.00;;
49422;SDS011;36998;51.974;20.150;2022-11-20T04:31:24;68.93;;;26.98;;
49422;SDS011;36998;51.974;20.150;2022-11-20T04:33:51;81.72;;;28.80;;
49422;SDS011;36998;51.974;20.150;2022-11-20T04:38:53;73.53;;;26.45;;
49422;SDS011;36998;51.974;20.150;2022-11-20T04:41:22;76.72;;;28.45;;
49422;SDS011;36998;51.974;20.150;2022-11-20T04:43:49;84.53;;;28.67;;
49422;SDS011;36998;51.974;20.150;2022-11-20T04:46:17;84.30;;;30.38;;
49422;SDS011;36998;51.974;20.150;2022-11-20T04:48:44;76.97;;;28.27;;
49422;SDS011;36998;51.974;20.150;2022-11-20T04:51:10;82.00;;;28.50;;
49422;SDS011;36998;51.974;20.150;2022-11-20T04:53:35;78.55;;;27.33;;
49422;SDS011;36998;51.974;20.150;2022-11-20T04:56:05;75.28;;;28.55;;
49422;SDS011;36998;51.974;20.150;2022-11-20T04:58:33;78.95;;;28.35;;
49422;SDS011;36998;51.974;20.150;2022-11-20T05:03:28;82.90;;;28.23;;
49422;SDS011;36998;51.974;20.150;2022-11-20T05:05:54;75.20;;;29.30;;
49422;SDS011;36998;51.974;20.150;2022-11-20T05:08:19;69.32;;;26.25;;
49422;SDS011;36998;51.974;20.150;2022-11-20T05:10:45;73.03;;;27.63;;
49422;SDS011;36998;51.974;20.150;2022-11-20T05:13:10;78.47;;;27.73;;
49422;SDS011;36998;51.974;20.150;2022-11-20T05:15:36;74.93;;;26.95;;
49422;SDS011;36998;51.974;20.150;2022-11-20T05:18:01;73.47;;;27.52;;
49422;SDS011;36998;51.974;20.150;2022-11-20T05:20:26;67.75;;;25.70;;
49422;SDS011;36998;51.974;20.150;2022-11-20T05:22:52;76.30;;;26.27;;
49422;SDS011;36998;51.974;20.150;2022-11-20T05:25:17;74.47;;;25.40;;
49422;SDS011;36998;51.974;20.150;2022-11-20T05:27:43;72.88;;;25.85;;
49422;SDS011;36998;51.974;20.150;2022-11-20T05:30:08;75.63;;;26.85;;
49422;SDS011;36998;51.974;20.150;2022-11-20T05:32:35;123.70;;;45.95;;
49422;SDS011;36998;51.974;20.150;2022-11-20T05:35:00;68.32;;;25.38;;
49422;SDS011;36998;51.974;20.150;2022-11-20T05:37:25;74.68;;;25.65;;
49422;SDS011;36998;51.974;20.150;2022-11-20T05:39:51;69.45;;;26.67;;
49422;SDS011;36998;51.974;20.150;2022-11-20T05:42:16;75.82;;;25.85;;
49422;SDS011;36998;51.974;20.150;2022-11-20T05:44:58;69.57;;;25.67;;
49422;SDS011;36998;51.974;20.150;2022-11-20T05:47:24;72.55;;;25.75;;
49422;SDS011;36998;51.974;20.150;2022-11-20T05:49:50;74.85;;;26.17;;
49422;SDS011;36998;51.974;20.150;2022-11-20T05:52:16;73.45;;;25.08;;
49422;SDS011;36998;51.974;20.150;2022-11-20T05:54:41;72.18;;;26.40;;
49422;SDS011;36998;51.974;20.150;2022-11-20T05:57:07;69.90;;;26.05;;
49422;SDS011;36998;51.974;20.150;2022-11-20T05:59:32;72.15;;;27.60;;
49422;SDS011;36998;51.974;20.150;2022-11-20T06:01:58;75.28;;;27.30;;
49422;SDS011;36998;51.974;20.150;2022-11-20T06:04:23;75.45;;;27.05;;
49422;SDS011;36998;51.974;20.150;2022-11-20T06:06:49;82.57;;;27.33;;
49422;SDS011;36998;51.974;20.150;2022-11-20T06:09:14;72.40;;;23.88;;
49422;SDS011;36998;51.974;20.150;2022-11-20T06:11:40;73.70;;;26.38;;
49422;SDS011;36998;51.974;20.150;2022-11-20T06:14:05;69.80;;;26.30;;
49422;SDS011;36998;51.974;20.150;2022-11-20T06:16:31;73.20;;;26.13;;
49422;SDS011;36998;51.974;20.150;2022-11-20T06:18:56;76.38;;;27.67;;
49422;SDS011;36998;51.974;20.150;2022-11-20T06:21:22;76.82;;;27.08;;
49422;SDS011;36998;51.974;20.150;2022-11-20T06:23:48;70.63;;;26.25;;
49422;SDS011;36998;51.974;20.150;2022-11-20T06:26:22;82.70;;;29.38;;
49422;SDS011;36998;51.974;20.150;2022-11-20T06:28:50;87.22;;;28.95;;
49422;SDS011;36998;51.974;20.150;2022-11-20T06:31:17;82.13;;;29.65;;
49422;SDS011;36998;51.974;20.150;2022-11-20T06:33:44;87.38;;;29.52;;
49422;SDS011;36998;51.974;20.150;2022-11-20T06:36:11;86.40;;;30.02;;
49422;SDS011;36998;51.974;20.150;2022-11-20T06:38:39;83.97;;;31.25;;
49422;SDS011;36998;51.974;20.150;2022-11-20T06:41:05;92.38;;;33.10;;
49422;SDS011;36998;51.974;20.150;2022-11-20T06:43:34;90.55;;;31.65;;
49422;SDS011;36998;51.974;20.150;2022-11-20T06:45:59;88.68;;;31.85;;
49422;SDS011;36998;51.974;20.150;2022-11-20T06:48:25;90.55;;;33.13;;
49422;SDS011;36998;51.974;20.150;2022-11-20T06:50:52;92.53;;;32.20;;
49422;SDS011;36998;51.974;20.150;2022-11-20T06:53:17;95.70;;;33.50;;
49422;SDS011;36998;51.974;20.150;2022-11-20T06:55:43;94.68;;;33.30;;
49422;SDS011;36998;51.974;20.150;2022-11-20T06:58:10;93.47;;;35.38;;
49422;SDS011;36998;51.974;20.150;2022-11-20T07:00:36;100.47;;;34.13;;
49422;SDS011;36998;51.974;20.150;2022-11-20T07:03:05;97.45;;;35.05;;
49422;SDS011;36998;51.974;20.150;2022-11-20T07:05:32;93.82;;;34.00;;
49422;SDS011;36998;51.974;20.150;2022-11-20T07:07:57;99.95;;;36.08;;
49422;SDS011;36998;51.974;20.150;2022-11-20T07:10:23;95.78;;;36.55;;
49422;SDS011;36998;51.974;20.150;2022-11-20T07:12:50;96.63;;;35.58;;
49422;SDS011;36998;51.974;20.150;2022-11-20T07:15:19;103.63;;;36.45;;
49422;SDS011;36998;51.974;20.150;2022-11-20T07:17:46;106.13;;;37.33;;
49422;SDS011;36998;51.974;20.150;2022-11-20T07:20:12;98.13;;;37.00;;
49422;SDS011;36998;51.974;20.150;2022-11-20T07:22:38;99.07;;;36.08;;
49422;SDS011;36998;51.974;20.150;2022-11-20T07:25:04;95.43;;;34.58;;
49422;SDS011;36998;51.974;20.150;2022-11-20T07:27:30;89.80;;;33.75;;
49422;SDS011;36998;51.974;20.150;2022-11-20T07:29:55;95.93;;;34.13;;
49422;SDS011;36998;51.974;20.150;2022-11-20T07:32:21;88.53;;;34.08;;
49422;SDS011;36998;51.974;20.150;2022-11-20T07:34:47;95.20;;;34.30;;
49422;SDS011;36998;51.974;20.150;2022-11-20T07:37:13;87.95;;;33.92;;
49422;SDS011;36998;51.974;20.150;2022-11-20T07:39:39;77.70;;;31.77;;
49422;SDS011;36998;51.974;20.150;2022-11-20T07:42:06;87.57;;;34.58;;
49422;SDS011;36998;51.974;20.150;2022-11-20T07:44:36;91.32;;;35.80;;
49422;SDS011;36998;51.974;20.150;2022-11-20T07:47:01;85.38;;;35.17;;
49422;SDS011;36998;51.974;20.150;2022-11-20T07:49:27;96.30;;;36.47;;
49422;SDS011;36998;51.974;20.150;2022-11-20T07:51:52;94.68;;;37.65;;
49422;SDS011;36998;51.974;20.150;2022-11-20T07:54:19;98.88;;;41.63;;
49422;SDS011;36998;51.974;20.150;2022-11-20T07:56:45;117.32;;;45.65;;
49422;SDS011;36998;51.974;20.150;2022-11-20T07:59:11;106.13;;;40.58;;
49422;SDS011;36998;51.974;20.150;2022-11-20T08:01:38;105.63;;;43.58;;
49422;SDS011;36998;51.974;20.150;2022-11-20T08:04:04;96.78;;;37.72;;
49422;SDS011;36998;51.974;20.150;2022-11-20T08:06:30;84.47;;;34.45;;
49422;SDS011;36998;51.974;20.150;2022-11-20T08:08:55;82.05;;;35.10;;
49422;SDS011;36998;51.974;20.150;2022-11-20T08:11:21;93.45;;;36.20;;
49422;SDS011;36998;51.974;20.150;2022-11-20T08:14:05;88.28;;;36.10;;
49422;SDS011;36998;51.974;20.150;2022-11-20T08:16:43;96.57;;;36.75;;
49422;SDS011;36998;51.974;20.150;2022-11-20T08:19:11;90.88;;;34.55;;
49422;SDS011;36998;51.974;20.150;2022-11-20T08:21:37;86.70;;;34.55;;
49422;SDS011;36998;51.974;20.150;2022-11-20T08:24:02;84.45;;;34.88;;
49422;SDS011;36998;51.974;20.150;2022-11-20T08:26:28;88.78;;;36.17;;
49422;SDS011;36998;51.974;20.150;2022-11-20T08:28:55;88.93;;;33.60;;
49422;SDS011;36998;51.974;20.150;2022-11-20T08:31:22;88.63;;;34.15;;
49422;SDS011;36998;51.974;20.150;2022-11-20T08:33:47;80.20;;;34.80;;
49422;SDS011;36998;51.974;20.150;2022-11-20T08:36:13;86.53;;;35.05;;
49422;SDS011;36998;51.974;20.150;2022-11-20T08:38:40;83.90;;;33.58;;
49422;SDS011;36998;51.974;20.150;2022-11-20T08:41:05;83.78;;;36.78;;
49422;SDS011;36998;51.974;20.150;2022-11-20T08:43:57;101.15;;;40.78;;
49422;SDS011;36998;51.974;20.150;2022-11-20T08:46:25;86.90;;;37.30;;
49422;SDS011;36998;51.974;20.150;2022-11-20T08:48:52;85.57;;;36.53;;
49422;SDS011;36998;51.974;20.150;2022-11-20T08:51:18;89.13;;;35.60;;
49422;SDS011;36998;51.974;20.150;2022-11-20T08:53:44;92.90;;;38.10;;
49422;SDS011;36998;51.974;20.150;2022-11-20T08:56:11;88.45;;;37.50;;
49422;SDS011;36998;51.974;20.150;2022-11-20T08:58:37;92.82;;;36.22;;
49422;SDS011;36998;51.974;20.150;2022-11-20T09:01:03;84.18;;;33.28;;
49422;SDS011;36998;51.974;20.150;2022-11-20T09:03:29;80.50;;;33.35;;
49422;SDS011;36998;51.974;20.150;2022-11-20T09:06:02;70.60;;;31.25;;
49422;SDS011;36998;51.974;20.150;2022-11-20T09:08:29;78.22;;;32.25;;
49422;SDS011;36998;51.974;20.150;2022-11-20T09:10:56;75.30;;;32.78;;
49422;SDS011;36998;51.974;20.150;2022-11-20T09:13:23;79.93;;;33.97;;
49422;SDS011;36998;51.974;20.150;2022-11-20T09:15:58;70.30;;;27.83;;
49422;SDS011;36998;51.974;20.150;2022-11-20T09:18:26;73.13;;;30.27;;
49422;SDS011;36998;51.974;20.150;2022-11-20T09:20:56;74.40;;;31.17;;
49422;SDS011;36998;51.974;20.150;2022-11-20T09:23:22;85.45;;;33.78;;
49422;SDS011;36998;51.974;20.150;2022-11-20T09:25:48;86.55;;;34.20;;
49422;SDS011;36998;51.974;20.150;2022-11-20T09:28:13;68.25;;;27.75;;
49422;SDS011;36998;51.974;20.150;2022-11-20T09:30:39;72.93;;;30.23;;
49422;SDS011;36998;51.974;20.150;2022-11-20T09:33:05;69.97;;;30.10;;
49422;SDS011;36998;51.974;20.150;2022-11-20T09:35:31;77.70;;;31.67;;
49422;SDS011;36998;51.974;20.150;2022-11-20T09:37:57;75.38;;;29.77;;
49422;SDS011;36998;51.974;20.150;2022-11-20T09:40:24;81.47;;;29.83;;
49422;SDS011;36998;51.974;20.150;2022-11-20T09:43:10;70.00;;;29.70;;
49422;SDS011;36998;51.974;20.150;2022-11-20T09:48:26;65.72;;;29.02;;
49422;SDS011;36998;51.974;20.150;2022-11-20T09:56:22;61.63;;;24.45;;
49422;SDS011;36998;51.974;20.150;2022-11-20T09:58:51;67.18;;;29.73;;
49422;SDS011;36998;51.974;20.150;2022-11-20T10:01:21;59.47;;;25.25;;
49422;SDS011;36998;51.974;20.150;2022-11-20T10:06:37;68.53;;;27.35;;
49422;SDS011;36998;51.974;20.150;2022-11-20T10:14:25;59.60;;;25.58;;
49422;SDS011;36998;51.974;20.150;2022-11-20T10:22:42;58.03;;;25.15;;
49422;SDS011;36998;51.974;20.150;2022-11-20T10:33:12;59.80;;;24.85;;
49422;SDS011;36998;51.974;20.150;2022-11-20T10:38:10;62.58;;;25.83;;
49422;SDS011;36998;51.974;20.150;2022-11-20T10:40:46;59.55;;;23.92;;
49422;SDS011;36998;51.974;20.150;2022-11-20T10:43:28;67.80;;;26.42;;
49422;SDS011;36998;51.974;20.150;2022-11-20T10:48:27;59.70;;;25.48;;
49422;SDS011;36998;51.974;20.150;2022-11-20T10:56:17;61.63;;;26.13;;
49422;SDS011;36998;51.974;20.150;2022-11-20T10:59:19;61.97;;;27.35;;
49422;SDS011;36998;51.974;20.150;2022-11-20T11:02:00;66.63;;;27.35;;
49422;SDS011;36998;51.974;20.150;2022-11-20T11:06:58;71.78;;;27.15;;
49422;SDS011;36998;51.974;20.150;2022-11-20T11:09:34;70.15;;;28.75;;
49422;SDS011;36998;51.974;20.150;2022-11-20T11:12:08;66.18;;;26.98;;
49422;SDS011;36998;51.974;20.150;2022-11-20T11:17:30;69.00;;;27.33;;
49422;SDS011;36998;51.974;20.150;2022-11-20T11:20:05;60.72;;;25.17;;
49422;SDS011;36998;51.974;20.150;2022-11-20T11:22:43;61.97;;;24.88;;
49422;SDS011;36998;51.974;20.150;2022-11-20T11:25:21;66.40;;;26.90;;
49422;SDS011;36998;51.974;20.150;2022-11-20T11:27:47;125.03;;;45.97;;
49422;SDS011;36998;51.974;20.150;2022-11-20T11:30:15;59.83;;;26.73;;
49422;SDS011;36998;51.974;20.150;2022-11-20T11:32:42;58.10;;;24.05;;
49422;SDS011;36998;51.974;20.150;2022-11-20T11:35:27;52.60;;;22.60;;
49422;SDS011;36998;51.974;20.150;2022-11-20T11:37:54;53.95;;;21.65;;
49422;SDS011;36998;51.974;20.150;2022-11-20T11:40:28;52.25;;;23.95;;
49422;SDS011;36998;51.974;20.150;2022-11-20T11:42:57;51.08;;;23.42;;
49422;SDS011;36998;51.974;20.150;2022-11-20T11:45:25;51.47;;;23.35;;
49422;SDS011;36998;51.974;20.150;2022-11-20T11:47:51;49.17;;;22.30;;
49422;SDS011;36998;51.974;20.150;2022-11-20T11:50:22;54.47;;;22.50;;
49422;SDS011;36998;51.974;20.150;2022-11-20T11:52:58;48.28;;;22.88;;
49422;SDS011;36998;51.974;20.150;2022-11-20T11:55:31;45.42;;;21.15;;
49422;SDS011;36998;51.974;20.150;2022-11-20T12:00:37;50.22;;;22.75;;
49422;SDS011;36998;51.974;20.150;2022-11-20T12:03:12;47.28;;;23.08;;
49422;SDS011;36998;51.974;20.150;2022-11-20T12:05:48;55.20;;;26.20;;
49422;SDS011;36998;51.974;20.150;2022-11-20T12:10:56;48.07;;;24.93;;
49422;SDS011;36998;51.974;20.150;2022-11-20T12:15:59;47.83;;;23.77;;
49422;SDS011;36998;51.974;20.150;2022-11-20T12:18:27;44.80;;;25.02;;
49422;SDS011;36998;51.974;20.150;2022-11-20T12:21:40;47.10;;;25.20;;
49422;SDS011;36998;51.974;20.150;2022-11-20T12:27:14;53.33;;;27.65;;
49422;SDS011;36998;51.974;20.150;2022-11-20T12:30:08;49.72;;;26.50;;
49422;SDS011;36998;51.974;20.150;2022-11-20T12:50:56;60.53;;;30.90;;
49422;SDS011;36998;51.974;20.150;2022-11-20T12:53:47;49.78;;;26.95;;
49422;SDS011;36998;51.974;20.150;2022-11-20T12:56:41;46.95;;;26.05;;
49422;SDS011;36998;51.974;20.150;2022-11-20T13:02:30;55.00;;;27.73;;
49422;SDS011;36998;51.974;20.150;2022-11-20T13:07:28;56.00;;;27.60;;
49422;SDS011;36998;51.974;20.150;2022-11-20T13:09:55;64.93;;;29.17;;
49422;SDS011;36998;51.974;20.150;2022-11-20T13:12:35;60.67;;;30.00;;
49422;SDS011;36998;51.974;20.150;2022-11-20T13:15:11;64.65;;;28.05;;
49422;SDS011;36998;51.974;20.150;2022-11-20T13:17:55;53.50;;;26.35;;
49422;SDS011;36998;51.974;20.150;2022-11-20T13:20:24;62.38;;;29.90;;
49422;SDS011;36998;51.974;20.150;2022-11-20T13:22:51;64.63;;;32.53;;
49422;SDS011;36998;51.974;20.150;2022-11-20T13:25:38;71.93;;;35.08;;
49422;SDS011;36998;51.974;20.150;2022-11-20T13:28:26;67.50;;;32.38;;
49422;SDS011;36998;51.974;20.150;2022-11-20T13:30:55;66.30;;;32.80;;
49422;SDS011;36998;51.974;20.150;2022-11-20T13:36:02;63.88;;;29.98;;
49422;SDS011;36998;51.974;20.150;2022-11-20T13:41:35;61.45;;;29.27;;
49422;SDS011;36998;51.974;20.150;2022-11-20T13:46:35;69.47;;;31.85;;
49422;SDS011;36998;51.974;20.150;2022-11-20T13:49:06;66.40;;;30.52;;
49422;SDS011;36998;51.974;20.150;2022-11-20T13:51:40;64.40;;;28.95;;
49422;SDS011;36998;51.974;20.150;2022-11-20T13:56:59;76.28;;;32.97;;
49422;SDS011;36998;51.974;20.150;2022-11-20T14:02:36;62.70;;;28.25;;
49422;SDS011;36998;51.974;20.150;2022-11-20T14:05:02;72.45;;;35.28;;
49422;SDS011;36998;51.974;20.150;2022-11-20T14:07:35;67.25;;;32.47;;
49422;SDS011;36998;51.974;20.150;2022-11-20T14:10:05;54.97;;;26.63;;
49422;SDS011;36998;51.974;20.150;2022-11-20T14:12:32;56.30;;;26.92;;
49422;SDS011;36998;51.974;20.150;2022-11-20T14:14:58;55.10;;;25.77;;
49422;SDS011;36998;51.974;20.150;2022-11-20T14:17:32;61.63;;;26.63;;
49422;SDS011;36998;51.974;20.150;2022-11-20T14:20:00;60.20;;;27.05;;
49422;SDS011;36998;51.974;20.150;2022-11-20T14:22:30;56.65;;;25.73;;
49422;SDS011;36998;51.974;20.150;2022-11-20T14:27:41;64.25;;;27.88;;
49422;SDS011;36998;51.974;20.150;2022-11-20T14:30:20;67.45;;;29.45;;
49422;SDS011;36998;51.974;20.150;2022-11-20T14:32:48;67.80;;;28.23;;
49422;SDS011;36998;51.974;20.150;2022-11-20T14:35:16;68.57;;;33.20;;
49422;SDS011;36998;51.974;20.150;2022-11-20T14:37:46;62.80;;;27.27;;
49422;SDS011;36998;51.974;20.150;2022-11-20T14:46:03;75.15;;;33.65;;
49422;SDS011;36998;51.974;20.150;2022-11-20T14:48:43;71.97;;;31.73;;
49422;SDS011;36998;51.974;20.150;2022-11-20T14:51:15;73.00;;;33.30;;
49422;SDS011;36998;51.974;20.150;2022-11-20T14:53:53;74.20;;;32.42;;
49422;SDS011;36998;51.974;20.150;2022-11-20T14:56:22;74.03;;;31.83;;
49422;SDS011;36998;51.974;20.150;2022-11-20T14:58:58;74.50;;;33.20;;
49422;SDS011;36998;51.974;20.150;2022-11-20T15:01:28;78.30;;;33.28;;
49422;SDS011;36998;51.974;20.150;2022-11-20T15:03:59;81.32;;;35.28;;
49422;SDS011;36998;51.974;20.150;2022-11-20T15:06:37;70.65;;;29.70;;
49422;SDS011;36998;51.974;20.150;2022-11-20T15:09:14;76.57;;;30.60;;
49422;SDS011;36998;51.974;20.150;2022-11-20T15:11:40;75.65;;;31.42;;
49422;SDS011;36998;51.974;20.150;2022-11-20T15:16:46;78.25;;;30.05;;
49422;SDS011;36998;51.974;20.150;2022-11-20T15:19:21;68.97;;;28.52;;
49422;SDS011;36998;51.974;20.150;2022-11-20T15:21:48;81.15;;;30.33;;
49422;SDS011;36998;51.974;20.150;2022-11-20T15:24:14;84.35;;;31.20;;
49422;SDS011;36998;51.974;20.150;2022-11-20T15:26:39;82.18;;;34.30;;
49422;SDS011;36998;51.974;20.150;2022-11-20T15:29:07;83.35;;;34.15;;
49422;SDS011;36998;51.974;20.150;2022-11-20T15:31:34;89.50;;;33.88;;
49422;SDS011;36998;51.974;20.150;2022-11-20T15:34:00;89.65;;;35.58;;
49422;SDS011;36998;51.974;20.150;2022-11-20T15:36:25;82.97;;;34.05;;
49422;SDS011;36998;51.974;20.150;2022-11-20T15:38:51;94.03;;;35.83;;
49422;SDS011;36998;51.974;20.150;2022-11-20T15:41:16;95.13;;;37.40;;
49422;SDS011;36998;51.974;20.150;2022-11-20T15:43:42;88.78;;;35.45;;
49422;SDS011;36998;51.974;20.150;2022-11-20T15:46:11;91.57;;;36.10;;
49422;SDS011;36998;51.974;20.150;2022-11-20T15:48:40;93.00;;;36.72;;
49422;SDS011;36998;51.974;20.150;2022-11-20T15:53:36;85.53;;;34.67;;
49422;SDS011;36998;51.974;20.150;2022-11-20T15:56:09;99.32;;;40.25;;
49422;SDS011;36998;51.974;20.150;2022-11-20T15:58:37;95.10;;;36.63;;
49422;SDS011;36998;51.974;20.150;2022-11-20T16:01:02;102.30;;;38.20;;
49422;SDS011;36998;51.974;20.150;2022-11-20T16:03:28;109.18;;;40.90;;
49422;SDS011;36998;51.974;20.150;2022-11-20T16:05:53;117.85;;;42.50;;
49422;SDS011;36998;51.974;20.150;2022-11-20T16:08:19;119.28;;;43.33;;
49422;SDS011;36998;51.974;20.150;2022-11-20T16:10:44;122.10;;;42.42;;
49422;SDS011;36998;51.974;20.150;2022-11-20T16:13:14;123.78;;;43.40;;
49422;SDS011;36998;51.974;20.150;2022-11-20T16:15:59;122.18;;;41.03;;
49422;SDS011;36998;51.974;20.150;2022-11-20T16:18:30;123.05;;;40.95;;
49422;SDS011;36998;51.974;20.150;2022-11-20T16:20:56;118.57;;;43.65;;
49422;SDS011;36998;51.974;20.150;2022-11-20T16:23:22;120.47;;;43.13;;